Time;durP1;ratioP1;P1;durP2;ratioP2;P2;SDS_P1;SDS_P2;PMS_P1;PMS_P2;Temp;Humidity;BMP_temperature;BMP_pressure;BME280_temperature;BME280_humidity;BME280_pressure;Samples;Min_cycle;Max_cycle;Signal;HPM_P1;HPM_P2
2021/03/22 00:00:37;;;;;;;27.48;4.63;;;3.90;90.50;;;;;;5034883;28;20052;-54
2021/03/22 00:03:04;;;;;;;25.60;4.20;;;3.90;90.70;;;;;;5010749;28;20359;-54
2021/03/22 00:05:30;;;;;;;25.55;4.72;;;4.00;90.60;;;;;;5030751;28;20050;-54
2021/03/22 00:07:56;;;;;;;26.77;4.10;;;4.10;90.90;;;;;;5032694;28;20461;-52
2021/03/22 00:10:25;;;;;;;25.50;4.57;;;4.20;90.80;;;;;;5032402;28;20103;-53
2021/03/22 00:12:52;;;;;;;20.77;4.40;;;4.20;91.00;;;;;;5012479;28;20064;-53
2021/03/22 00:15:18;;;;;;;23.67;4.90;;;4.20;91.10;;;;;;5032331;28;20037;-54
2021/03/22 00:17:45;;;;;;;23.25;4.40;;;4.20;91.00;;;;;;5027343;28;20750;-54
2021/03/22 00:20:11;;;;;;;25.95;5.20;;;4.20;90.80;;;;;;5027048;28;20041;-53
2021/03/22 00:22:37;;;;;;;26.65;5.05;;;4.30;91.10;;;;;;5028958;28;20449;-53
2021/03/22 00:25:04;;;;;;;22.67;4.68;;;4.30;91.00;;;;;;5030964;28;20068;-53
2021/03/22 00:27:30;;;;;;;20.75;4.05;;;4.30;90.90;;;;;;5031141;28;20077;-51
2021/03/22 00:29:56;;;;;;;17.23;3.95;;;4.40;91.00;;;;;;5022737;28;20058;-54
2021/03/22 00:32:21;;;;;;;26.58;4.05;;;4.40;91.00;;;;;;5025608;28;20133;-53
2021/03/22 00:34:47;;;;;;;30.77;4.82;;;4.40;91.00;;;;;;5025325;28;20072;-54
2021/03/22 00:37:13;;;;;;;22.52;4.63;;;4.50;91.20;;;;;;5025490;28;20044;-53
2021/03/22 00:39:38;;;;;;;21.38;4.53;;;4.50;91.00;;;;;;5031333;28;20401;-54
2021/03/22 00:42:04;;;;;;;24.17;4.78;;;4.50;91.10;;;;;;5031178;28;20037;-53
2021/03/22 00:44:30;;;;;;;25.00;5.78;;;4.60;91.10;;;;;;5032209;28;20099;-51
2021/03/22 00:46:56;;;;;;;22.30;4.72;;;4.60;91.20;;;;;;5025749;28;20494;-53
2021/03/22 00:49:22;;;;;;;24.15;5.18;;;4.60;91.20;;;;;;5030493;28;20041;-54
2021/03/22 00:51:48;;;;;;;29.88;4.95;;;4.60;91.20;;;;;;5031530;28;20044;-53
2021/03/22 00:54:13;;;;;;;19.52;4.50;;;4.70;91.20;;;;;;5031183;28;20407;-54
2021/03/22 00:56:39;;;;;;;33.13;5.63;;;4.70;91.30;;;;;;5028406;28;20502;-53
2021/03/22 00:59:05;;;;;;;23.70;4.80;;;4.70;91.40;;;;;;5022475;28;20041;-53
2021/03/22 01:01:31;;;;;;;27.42;6.05;;;4.70;91.20;;;;;;5026989;28;20509;-52
2021/03/22 01:03:57;;;;;;;31.25;5.97;;;4.80;91.20;;;;;;5030781;28;20045;-51
2021/03/22 01:06:23;;;;;;;22.05;5.38;;;4.80;91.30;;;;;;5027032;28;20127;-53
2021/03/22 01:08:49;;;;;;;30.77;5.15;;;4.90;91.20;;;;;;5026249;28;20141;-52
2021/03/22 01:11:18;;;;;;;20.25;5.25;;;4.80;91.20;;;;;;5034389;28;20108;-54
2021/03/22 01:13:50;;;;;;;25.55;4.85;;;4.90;91.30;;;;;;5031376;28;20077;-51
2021/03/22 01:16:17;;;;;;;;;;;4.90;91.30;;;;;;5023282;28;20041;-54
2021/03/22 01:18:46;;;;;;;32.03;6.25;;;4.90;91.40;;;;;;5009826;28;19925;-54
2021/03/22 01:21:29;;;;;;;27.48;6.57;;;4.90;91.10;;;;;;5030280;28;20049;-51
2021/03/22 01:23:55;;;;;;;23.75;5.97;;;4.90;91.10;;;;;;5027648;28;20044;-54
2021/03/22 01:26:24;;;;;;;32.17;6.15;;;5.00;91.10;;;;;;5030384;28;20490;-53
2021/03/22 01:28:50;;;;;;;25.73;6.28;;;4.90;91.10;;;;;;5028665;28;20086;-52
2021/03/22 01:31:16;;;;;;;26.50;6.30;;;5.00;91.10;;;;;;5028899;28;20108;-52
2021/03/22 01:33:44;;;;;;;28.35;6.60;;;5.00;91.20;;;;;;5027909;28;20053;-54
2021/03/22 01:36:13;;;;;;;24.17;6.30;;;5.00;91.10;;;;;;5031052;28;20490;-52
2021/03/22 01:38:40;;;;;;;27.60;6.28;;;5.00;91.20;;;;;;5006700;28;20133;-53
2021/03/22 01:41:24;;;;;;;28.20;6.78;;;5.00;91.20;;;;;;5031980;28;20050;-51
2021/03/22 01:44:19;;;;;;;33.90;7.38;;;5.10;91.40;;;;;;5031019;28;20045;-54
2021/03/22 01:46:50;;;;;;;29.40;6.45;;;5.10;91.40;;;;;;5025166;28;20073;-52
2021/03/22 01:49:16;;;;;;;27.38;7.10;;;5.10;91.20;;;;;;5013246;28;20051;-52
2021/03/22 01:51:42;;;;;;;35.50;7.20;;;5.10;91.30;;;;;;5026361;28;20100;-54
2021/03/22 01:54:09;;;;;;;30.92;7.30;;;5.10;91.30;;;;;;5027626;28;20052;-51
2021/03/22 01:56:41;;;;;;;34.28;6.95;;;5.10;91.40;;;;;;5027128;28;20109;-50
2021/03/22 01:59:10;;;;;;;29.45;7.32;;;5.10;91.60;;;;;;5027072;28;20044;-53
2021/03/22 02:01:37;;;;;;;27.25;7.07;;;5.10;91.40;;;;;;5023399;28;20041;-50
2021/03/22 02:04:04;;;;;;;27.65;6.68;;;5.10;91.50;;;;;;5030850;28;20520;-50
2021/03/22 02:06:29;;;;;;;37.03;7.60;;;5.20;91.40;;;;;;5028905;28;20558;-50
2021/03/22 02:08:56;;;;;;;31.23;7.45;;;5.20;91.60;;;;;;5025005;28;20049;-50
2021/03/22 02:11:26;;;;;;;35.58;7.50;;;5.20;91.40;;;;;;5027903;28;20041;-51
2021/03/22 02:13:58;;;;;;;30.98;7.35;;;5.20;91.50;;;;;;5025316;28;20042;-53
2021/03/22 02:16:46;;;;;;;32.97;7.50;;;5.20;91.60;;;;;;5027634;28;20079;-49
2021/03/22 02:19:39;;;;;;;29.55;6.85;;;5.30;91.50;;;;;;5027017;28;20249;-52
2021/03/22 02:22:46;;;;;;;26.45;7.40;;;5.20;91.40;;;;;;5029038;28;20061;-51
2021/03/22 02:25:20;;;;;;;32.28;7.65;;;5.30;91.40;;;;;;5009207;28;20037;-51
2021/03/22 02:28:23;;;;;;;32.67;7.60;;;5.40;91.40;;;;;;5029674;28;20095;-50
2021/03/22 02:31:15;;;;;;;36.28;7.72;;;5.40;91.40;;;;;;5030834;28;20512;-52
2021/03/22 02:34:09;;;;;;;31.75;7.38;;;5.40;91.40;;;;;;5029463;28;20045;-51
2021/03/22 02:36:42;;;;;;;30.40;7.10;;;5.40;91.40;;;;;;5027602;28;20410;-52
2021/03/22 02:39:08;;;;;;;29.85;7.68;;;5.40;91.40;;;;;;5020433;28;20034;-51
2021/03/22 02:41:51;;;;;;;31.13;7.88;;;5.40;91.30;;;;;;5011453;28;20041;-52
2021/03/22 02:44:24;;;;;;;24.10;7.43;;;5.40;91.30;;;;;;5011648;28;20054;-54
2021/03/22 02:47:21;;;;;;;35.42;7.40;;;5.40;91.30;;;;;;5029518;28;20111;-52
2021/03/22 02:49:48;;;;;;;25.20;6.68;;;5.40;91.30;;;;;;5027185;28;20042;-50
2021/03/22 02:52:41;;;;;;;28.58;7.60;;;5.40;91.30;;;;;;5031738;28;20536;-54
2021/03/22 02:55:28;;;;;;;32.17;8.20;;;5.40;91.30;;;;;;5030700;28;20060;-54
2021/03/22 02:57:59;;;;;;;30.35;7.30;;;5.40;91.30;;;;;;5029021;28;20410;-54
2021/03/22 03:00:33;;;;;;;33.83;6.82;;;5.50;91.30;;;;;;5033358;28;20048;-53
2021/03/22 03:03:03;;;;;;;29.38;7.22;;;5.40;91.20;;;;;;5030582;28;20053;-53
2021/03/22 03:05:31;;;;;;;24.42;6.32;;;5.40;91.10;;;;;;5030534;28;20049;-51
2021/03/22 03:07:59;;;;;;;27.95;6.53;;;5.40;91.20;;;;;;5029679;28;20033;-53
2021/03/22 03:10:26;;;;;;;29.38;6.20;;;5.50;91.20;;;;;;5030313;28;20453;-53
2021/03/22 03:12:51;;;;;;;31.13;6.75;;;5.50;91.10;;;;;;5030189;28;20060;-53
2021/03/22 03:15:19;;;;;;;27.98;6.13;;;5.50;91.10;;;;;;5028991;28;20049;-51
2021/03/22 03:17:45;;;;;;;26.05;5.97;;;5.50;91.20;;;;;;5017547;28;20037;-52
2021/03/22 03:20:18;;;;;;;26.17;5.88;;;5.50;91.20;;;;;;5032835;28;20534;-52
2021/03/22 03:22:44;;;;;;;21.95;5.97;;;5.50;91.20;;;;;;5033258;28;20049;-51
2021/03/22 03:25:11;;;;;;;27.33;6.03;;;5.60;91.20;;;;;;5013173;28;20539;-52
2021/03/22 03:27:37;;;;;;;22.60;6.20;;;5.50;91.20;;;;;;5031622;28;20045;-54
2021/03/22 03:30:09;;;;;;;24.60;5.68;;;5.50;91.30;;;;;;5014573;28;20069;-53
2021/03/22 03:32:35;;;;;;;28.13;5.60;;;5.50;91.20;;;;;;5028880;28;20045;-52
2021/03/22 03:35:03;;;;;;;23.90;6.00;;;5.50;91.20;;;;;;5014864;28;20042;-49
2021/03/22 03:37:28;;;;;;;34.05;7.45;;;5.50;91.30;;;;;;5014482;28;20048;-52
2021/03/22 03:39:54;;;;;;;23.98;5.82;;;5.50;91.30;;;;;;5032148;28;20033;-54
2021/03/22 03:42:19;;;;;;;29.40;5.63;;;5.50;91.40;;;;;;5030810;28;20045;-49
2021/03/22 03:44:45;;;;;;;28.02;5.88;;;5.50;91.30;;;;;;5030348;28;20087;-53
2021/03/22 03:47:11;;;;;;;20.27;5.68;;;5.50;91.80;;;;;;5029004;28;20553;-53
2021/03/22 03:49:36;;;;;;;24.95;6.20;;;5.50;91.60;;;;;;5032660;28;20037;-53
2021/03/22 03:52:04;;;;;;;26.45;5.90;;;5.50;91.60;;;;;;5029090;28;20065;-51
2021/03/22 03:54:30;;;;;;;23.48;5.28;;;5.50;91.70;;;;;;5029415;28;20115;-49
2021/03/22 03:56:55;;;;;;;19.88;4.75;;;5.50;91.80;;;;;;5031692;28;20049;-51
2021/03/22 03:59:21;;;;;;;34.53;6.32;;;5.40;91.80;;;;;;5030282;28;20482;-51
2021/03/22 04:01:47;;;;;;;21.92;4.90;;;5.40;91.70;;;;;;5029132;28;20116;-51
2021/03/22 04:04:12;;;;;;;22.83;4.60;;;5.40;92.10;;;;;;5029226;28;20052;-50
2021/03/22 04:06:38;;;;;;;18.48;4.95;;;5.50;91.90;;;;;;5028385;28;20041;-52
2021/03/22 04:09:07;;;;;;;26.50;5.03;;;5.40;91.90;;;;;;5032201;28;20498;-53
2021/03/22 04:11:39;;;;;;;26.67;4.93;;;5.40;91.80;;;;;;5027061;28;20038;-52
2021/03/22 04:14:08;;;;;;;19.05;4.15;;;5.40;91.90;;;;;;5031701;28;20441;-51
2021/03/22 04:16:34;;;;;;;27.35;4.68;;;5.40;92.00;;;;;;5025383;28;20047;-49
2021/03/22 04:19:00;;;;;;;20.38;5.10;;;5.40;91.80;;;;;;5032417;28;20041;-53
2021/03/22 04:21:29;;;;;;;21.00;4.70;;;5.40;91.90;;;;;;5031521;28;20494;-51
2021/03/22 04:23:56;;;;;;;20.42;4.40;;;5.40;92.20;;;;;;5030737;28;20095;-51
2021/03/22 04:26:22;;;;;;;28.35;5.13;;;5.40;92.10;;;;;;5031796;28;20045;-51
2021/03/22 04:28:48;;;;;;;20.38;4.55;;;5.40;92.30;;;;;;5030905;28;20128;-52
2021/03/22 04:31:20;;;;;;;22.75;4.68;;;5.40;92.00;;;;;;5031518;28;20046;-52
2021/03/22 04:33:46;;;;;;;16.80;3.90;;;5.40;92.10;;;;;;5030934;28;20050;-52
2021/03/22 04:36:13;;;;;;;22.73;4.20;;;5.40;92.00;;;;;;5031309;28;20387;-53
2021/03/22 04:38:39;;;;;;;16.23;3.65;;;5.40;92.00;;;;;;5030722;28;20052;-54
2021/03/22 04:41:06;;;;;;;18.73;4.40;;;5.40;91.80;;;;;;5031280;28;20042;-54
2021/03/22 04:43:32;;;;;;;18.42;4.40;;;5.50;91.70;;;;;;5018845;28;20099;-52
2021/03/22 04:45:58;;;;;;;20.02;4.20;;;5.40;91.70;;;;;;5030488;28;20494;-53
2021/03/22 04:48:23;;;;;;;17.88;3.88;;;5.40;91.90;;;;;;5031404;28;20548;-53
2021/03/22 04:50:50;;;;;;;20.05;4.20;;;5.40;91.90;;;;;;5031700;28;20041;-52
2021/03/22 04:53:16;;;;;;;19.63;3.60;;;5.40;91.80;;;;;;5010298;28;20041;-52
2021/03/22 04:55:42;;;;;;;16.70;3.35;;;5.40;91.80;;;;;;5031563;28;20390;-53
2021/03/22 04:58:08;;;;;;;14.85;3.42;;;5.40;91.90;;;;;;5030159;28;20044;-53
2021/03/22 05:00:44;;;;;;;16.33;4.35;;;5.40;91.80;;;;;;5031074;28;20041;-54
2021/03/22 05:03:12;;;;;;;15.80;3.30;;;5.40;91.70;;;;;;5030303;28;20045;-53
2021/03/22 05:05:38;;;;;;;16.90;2.95;;;5.40;91.60;;;;;;5030971;28;20095;-54
2021/03/22 05:08:06;;;;;;;17.70;2.72;;;5.40;91.60;;;;;;5029867;28;20441;-54
2021/03/22 05:10:35;;;;;;;17.23;3.22;;;5.40;91.60;;;;;;5030447;28;20033;-55
2021/03/22 05:13:02;;;;;;;13.25;2.75;;;5.40;91.50;;;;;;5029741;28;20087;-54
2021/03/22 05:15:28;;;;;;;15.65;3.22;;;5.40;91.50;;;;;;5030896;28;20084;-51
2021/03/22 05:17:54;;;;;;;17.02;3.50;;;5.40;91.40;;;;;;5031758;28;20084;-53
2021/03/22 05:20:27;;;;;;;15.27;3.67;;;5.50;91.40;;;;;;5035008;28;20137;-53
2021/03/22 05:22:53;;;;;;;11.57;2.40;;;5.50;91.40;;;;;;5031649;28;20049;-53
2021/03/22 05:25:19;;;;;;;18.98;2.92;;;5.50;91.40;;;;;;5029816;28;20623;-52
2021/03/22 05:27:46;;;;;;;15.57;2.85;;;5.50;91.30;;;;;;5027352;28;20440;-51
2021/03/22 05:30:14;;;;;;;14.10;2.85;;;5.50;91.30;;;;;;5016907;28;20113;-53
2021/03/22 05:32:39;;;;;;;9.98;1.92;;;5.50;91.30;;;;;;5022826;28;20391;-53
2021/03/22 05:35:09;;;;;;;16.40;2.83;;;5.50;91.40;;;;;;5020034;28;20120;-53
2021/03/22 05:37:35;;;;;;;12.52;2.40;;;5.50;91.40;;;;;;5027181;28;20033;-53
2021/03/22 05:40:01;;;;;;;11.30;2.13;;;5.50;91.40;;;;;;5030681;28;20042;-54
2021/03/22 05:42:38;;;;;;;12.40;2.65;;;5.40;91.50;;;;;;5027067;28;20417;-51
2021/03/22 05:45:27;;;;;;;9.63;2.10;;;5.40;91.40;;;;;;5025112;28;20053;-52
2021/03/22 05:48:03;;;;;;;16.10;2.45;;;5.40;91.40;;;;;;4985576;28;20366;-52
2021/03/22 05:50:45;;;;;;;13.20;2.13;;;5.40;91.50;;;;;;5030266;28;20041;-53
2021/03/22 05:53:26;;;;;;;34.35;3.40;;;5.40;91.60;;;;;;5028409;28;20037;-50
2021/03/22 05:55:54;;;;;;;13.93;2.55;;;5.40;91.70;;;;;;5025443;28;20049;-51
2021/03/22 05:58:29;;;;;;;11.00;2.42;;;5.40;91.70;;;;;;5024495;28;20045;-56
2021/03/22 06:01:09;;;;;;;11.27;2.28;;;5.40;91.70;;;;;;5025163;28;20037;-52
2021/03/22 06:03:45;;;;;;;9.40;2.60;;;5.50;91.70;;;;;;5024215;28;20049;-53
2021/03/22 06:06:35;;;;;;;15.50;2.65;;;5.50;91.60;;;;;;5029507;28;20072;-55
2021/03/22 06:09:42;;;;;;;12.40;2.40;;;5.50;91.70;;;;;;5011849;28;20049;-54
2021/03/22 06:12:26;;;;;;;11.80;2.50;;;5.50;91.70;;;;;;5023022;28;20041;-54
2021/03/22 06:15:34;;;;;;;16.90;3.10;;;5.50;91.60;;;;;;5023716;28;20540;-51
2021/03/22 06:18:24;;;;;;;12.98;2.78;;;5.60;91.70;;;;;;5010905;28;20053;-52
2021/03/22 06:20:55;;;;;;;17.17;2.70;;;5.60;91.70;;;;;;5018648;28;20156;-53
2021/03/22 06:23:39;;;;;;;15.48;2.65;;;5.60;91.60;;;;;;5025066;28;20457;-53
2021/03/22 06:26:22;;;;;;;14.68;2.72;;;5.60;91.60;;;;;;5024746;28;21061;-55
2021/03/22 06:28:56;;;;;;;8.73;2.10;;;5.60;91.50;;;;;;5030173;28;20045;-55
2021/03/22 06:31:23;;;;;;;9.13;2.17;;;5.60;91.60;;;;;;5033258;28;20512;-53
2021/03/22 06:33:53;;;;;;;13.68;2.78;;;5.60;91.60;;;;;;5033963;28;20037;-53
2021/03/22 06:36:22;;;;;;;10.50;2.35;;;5.60;91.70;;;;;;5033258;28;20045;-53
2021/03/22 06:38:54;;;;;;;14.82;2.33;;;5.60;91.90;;;;;;5026288;28;20517;-53
2021/03/22 06:41:46;;;;;;;13.85;2.80;;;5.50;91.60;;;;;;5027809;28;20042;-53
2021/03/22 06:44:32;;;;;;;11.65;2.28;;;5.60;91.70;;;;;;5037087;28;20056;-52
2021/03/22 06:47:00;;;;;;;14.02;2.58;;;5.60;91.80;;;;;;5020685;28;20045;-53
2021/03/22 06:49:30;;;;;;;11.68;2.42;;;5.70;91.70;;;;;;5024405;28;20138;-53
2021/03/22 06:52:20;;;;;;;14.85;2.20;;;5.60;91.70;;;;;;5019509;28;20037;-52
2021/03/22 06:54:57;;;;;;;13.18;2.42;;;5.60;91.70;;;;;;5014223;28;20045;-53
2021/03/22 06:57:25;;;;;;;12.15;2.63;;;5.70;91.90;;;;;;5021349;28;20034;-53
2021/03/22 07:00:10;;;;;;;11.63;2.40;;;5.70;91.70;;;;;;5021623;28;20060;-53
2021/03/22 07:02:57;;;;;;;14.98;2.65;;;5.70;91.60;;;;;;5020672;28;20068;-53
2021/03/22 07:05:29;;;;;;;11.55;2.40;;;5.80;91.50;;;;;;5003416;28;20498;-53
2021/03/22 07:08:03;;;;;;;14.07;2.40;;;5.80;91.70;;;;;;5019516;28;20048;-52
2021/03/22 07:10:37;;;;;;;9.57;2.30;;;5.80;91.80;;;;;;5023598;28;20044;-52
2021/03/22 07:13:25;;;;;;;11.57;2.38;;;5.80;91.70;;;;;;5012695;28;20034;-52
2021/03/22 07:15:56;;;;;;;12.25;2.10;;;5.80;92.00;;;;;;5020720;28;20038;-51
2021/03/22 07:18:33;;;;;;;9.00;2.22;;;5.80;91.90;;;;;;4989350;28;20096;-53
2021/03/22 07:21:05;;;;;;;12.60;3.08;;;5.80;91.90;;;;;;5024263;28;20042;-54
2021/03/22 07:23:48;;;;;;;12.43;2.50;;;5.80;91.80;;;;;;5002488;28;20049;-53
2021/03/22 07:26:31;;;;;;;7.57;2.20;;;5.90;91.80;;;;;;4999464;28;20049;-53
2021/03/22 07:29:18;;;;;;;11.43;2.00;;;5.90;91.80;;;;;;5004851;28;20095;-52
2021/03/22 07:31:50;;;;;;;9.38;2.10;;;5.90;91.90;;;;;;5002692;28;20108;-54
2021/03/22 07:34:45;;;;;;;13.07;2.28;;;6.00;91.70;;;;;;4977743;28;20124;-53
2021/03/22 07:37:41;;;;;;;8.95;2.30;;;6.00;91.80;;;;;;5025868;28;20041;-54
2021/03/22 07:40:39;;;;;;;13.98;2.78;;;6.10;91.80;;;;;;5031301;28;20044;-55
2021/03/22 07:43:21;;;;;;;12.63;2.20;;;6.10;91.70;;;;;;5028580;28;20126;-55
2021/03/22 07:46:04;;;;;;;10.25;2.17;;;6.20;91.60;;;;;;5030662;28;20094;-55
2021/03/22 07:48:47;;;;;;;15.43;2.30;;;6.10;91.80;;;;;;5032000;28;20041;-53
2021/03/22 07:51:56;;;;;;;13.77;2.58;;;6.10;91.60;;;;;;5027108;28;20449;-53
2021/03/22 07:54:44;;;;;;;10.70;2.83;;;6.10;91.90;;;;;;5003552;28;20038;-55
2021/03/22 07:57:26;;;;;;;10.73;2.50;;;6.20;91.90;;;;;;5023570;28;20045;-55
2021/03/22 08:00:06;;;;;;;10.02;1.98;;;6.10;91.80;;;;;;5030053;28;20065;-53
2021/03/22 08:03:08;;;;;;;8.57;2.00;;;6.20;91.80;;;;;;5006264;28;20077;-55
2021/03/22 08:05:44;;;;;;;8.48;2.38;;;6.20;91.60;;;;;;4994640;28;20054;-53
2021/03/22 08:08:44;;;;;;;9.73;2.33;;;6.30;91.60;;;;;;5032102;28;20052;-53
2021/03/22 08:11:35;;;;;;;8.38;1.85;;;6.50;91.60;;;;;;5023444;28;20049;-49
2021/03/22 08:14:49;;;;;;;10.10;2.13;;;6.70;91.20;;;;;;5026946;28;20091;-50
2021/03/22 08:17:45;;;;;;;8.38;2.58;;;6.80;90.90;;;;;;4984013;28;20510;-54
2021/03/22 08:20:20;;;;;;;8.50;2.33;;;6.80;90.50;;;;;;5025272;28;20043;-52
2021/03/22 08:23:08;;;;;;;14.23;2.83;;;6.90;90.20;;;;;;5025383;28;20045;-50
2021/03/22 08:25:54;;;;;;;4.15;1.50;;;7.00;90.80;;;;;;5026821;28;20053;-54
2021/03/22 08:28:47;;;;;;;9.43;1.98;;;7.00;89.30;;;;;;5027229;28;20049;-51
2021/03/22 08:31:31;;;;;;;5.32;1.70;;;7.00;90.00;;;;;;5025766;28;20037;-53
2021/03/22 08:34:21;;;;;;;7.43;1.67;;;7.00;89.60;;;;;;5034263;28;20025;-53
2021/03/22 08:37:07;;;;;;;4.80;1.30;;;6.90;88.90;;;;;;5025247;28;20443;-55
2021/03/22 08:39:50;;;;;;;4.55;1.42;;;6.80;87.20;;;;;;5028165;28;20116;-53
2021/03/22 08:42:26;;;;;;;10.45;1.48;;;6.90;87.80;;;;;;5031033;28;20038;-51
2021/03/22 08:45:20;;;;;;;6.13;1.30;;;6.90;88.00;;;;;;5031765;28;20033;-52
2021/03/22 08:48:05;;;;;;;6.63;1.48;;;7.00;85.80;;;;;;5029373;28;20125;-51
2021/03/22 08:50:33;;;;;;;7.95;1.75;;;7.00;87.00;;;;;;5028472;28;20079;-51
2021/03/22 08:53:03;;;;;;;5.20;1.50;;;7.00;87.10;;;;;;5029727;28;20237;-51
2021/03/22 08:55:48;;;;;;;7.80;1.88;;;7.00;86.70;;;;;;5032731;28;20417;-52
2021/03/22 08:58:30;;;;;;;9.05;1.67;;;7.00;86.50;;;;;;5029331;28;20049;-53
2021/03/22 09:01:08;;;;;;;7.63;1.83;;;7.10;85.80;;;;;;5011199;28;20038;-49
2021/03/22 09:03:38;;;;;;;4.63;1.23;;;7.10;86.50;;;;;;5029880;28;20037;-49
2021/03/22 09:06:17;;;;;;;6.95;1.55;;;7.20;86.80;;;;;;5028986;28;20490;-49
2021/03/22 09:08:55;;;;;;;4.05;1.40;;;7.10;86.70;;;;;;5027947;28;20544;-52
2021/03/22 09:11:26;;;;;;;9.27;1.50;;;7.10;86.80;;;;;;5027721;28;20049;-49
2021/03/22 09:14:03;;;;;;;4.40;1.40;;;7.10;86.60;;;;;;5025239;28;20033;-49
2021/03/22 09:16:41;;;;;;;6.47;2.25;;;7.10;86.40;;;;;;5029476;28;20299;-49
2021/03/22 09:19:13;;;;;;;10.38;1.67;;;6.80;87.50;;;;;;5020558;28;20383;-49
2021/03/22 09:21:58;;;;;;;5.47;1.70;;;6.80;88.20;;;;;;5015871;28;20069;-50
2021/03/22 09:24:45;;;;;;;7.47;1.67;;;6.90;89.90;;;;;;5030316;28;20107;-51
2021/03/22 09:27:17;;;;;;;8.07;1.70;;;6.80;89.00;;;;;;5022700;28;20049;-50
2021/03/22 09:29:47;;;;;;;3.63;1.45;;;6.90;89.00;;;;;;5028030;28;20029;-49
2021/03/22 09:32:25;;;;;;;7.82;1.55;;;6.90;89.10;;;;;;5027581;28;20091;-53
2021/03/22 09:34:51;;;;;;;5.22;1.75;;;7.00;89.10;;;;;;5027805;28;20037;-52
2021/03/22 09:37:54;;;;;;;5.90;1.55;;;7.10;87.90;;;;;;5029702;28;20121;-50
2021/03/22 09:40:26;;;;;;;5.45;1.60;;;7.10;87.00;;;;;;5026226;28;20399;-50
2021/03/22 09:45:38;;;;;;;5.45;1.48;;;7.40;87.00;;;;;;5027753;28;20116;-54
2021/03/22 09:48:16;;;;;;;5.70;1.52;;;7.50;86.50;;;;;;5029577;28;20041;-53
2021/03/22 09:50:43;;;;;;;3.95;1.13;;;7.50;83.40;;;;;;5026206;28;20040;-50
2021/03/22 09:53:31;;;;;;;8.35;2.10;;;7.60;83.70;;;;;;5021620;28;20041;-52
2021/03/22 09:56:08;;;;;;;16.40;7.82;;;7.70;79.80;;;;;;5005589;28;20067;-51
2021/03/22 09:58:39;;;;;;;9.00;3.45;;;7.70;78.80;;;;;;5023560;28;20050;-50
2021/03/22 10:01:23;;;;;;;5.55;1.70;;;7.80;78.70;;;;;;5035464;28;20037;-49
2021/03/22 10:04:16;;;;;;;6.25;1.50;;;7.70;79.30;;;;;;5031575;28;20083;-49
2021/03/22 10:06:53;;;;;;;3.92;1.25;;;7.70;79.10;;;;;;5021234;28;20510;-49
2021/03/22 10:09:43;;;;;;;8.43;3.92;;;7.70;80.40;;;;;;5031127;28;20064;-52
2021/03/22 10:12:31;;;;;;;8.20;2.80;;;7.80;79.30;;;;;;5027903;28;20140;-54
2021/03/22 10:15:21;;;;;;;9.23;1.98;;;7.80;78.90;;;;;;5033825;28;20462;-52
2021/03/22 10:18:14;;;;;;;7.03;1.23;;;7.90;78.70;;;;;;4987277;28;20042;-50
2021/03/22 10:20:43;;;;;;;7.60;1.52;;;7.90;79.30;;;;;;5027113;28;20045;-50
2021/03/22 10:23:29;;;;;;;7.63;2.20;;;7.90;79.20;;;;;;5030398;28;20042;-48
2021/03/22 10:26:28;;;;;;;5.05;1.30;;;7.90;78.50;;;;;;5026607;28;20038;-52
2021/03/22 10:29:22;;;;;;;3.90;1.30;;;8.00;79.30;;;;;;5031081;28;20107;-52
2021/03/22 10:32:07;;;;;;;3.40;1.10;;;8.10;77.00;;;;;;5011336;28;20042;-51
2021/03/22 10:34:42;;;;;;;7.47;1.20;;;8.10;76.00;;;;;;5018873;28;20065;-52
2021/03/22 10:37:12;;;;;;;8.35;1.63;;;8.10;76.80;;;;;;5026801;28;20053;-53
2021/03/22 10:39:45;;;;;;;6.88;1.40;;;8.00;76.20;;;;;;5029959;28;20045;-52
2021/03/22 10:42:27;;;;;;;7.32;1.58;;;8.10;75.80;;;;;;5025371;28;20405;-51
2021/03/22 10:44:56;;;;;;;6.90;1.40;;;8.10;76.70;;;;;;5027635;28;20038;-49
2021/03/22 10:47:28;;;;;;;6.20;1.73;;;8.00;77.00;;;;;;5027697;28;20042;-51
2021/03/22 10:49:53;;;;;;;5.93;1.55;;;8.00;77.30;;;;;;5011869;28;20030;-51
2021/03/22 10:52:27;;;;;;;7.90;1.35;;;8.00;77.80;;;;;;5029134;28;20059;-52
2021/03/22 10:54:54;;;;;;;6.63;1.45;;;8.00;78.60;;;;;;5029181;28;20073;-53
2021/03/22 10:57:33;;;;;;;4.28;1.30;;;8.00;76.90;;;;;;5026913;28;20080;-52
2021/03/22 11:00:06;;;;;;;10.50;2.10;;;7.90;78.30;;;;;;5026555;28;20099;-51
2021/03/22 11:02:43;;;;;;;7.57;1.65;;;7.90;78.00;;;;;;5027895;28;20128;-54
2021/03/22 11:05:15;;;;;;;7.93;1.73;;;8.00;78.60;;;;;;5029379;28;20494;-53
2021/03/22 11:07:42;;;;;;;14.02;2.58;;;8.00;79.00;;;;;;5022183;28;20047;-50
2021/03/22 11:10:13;;;;;;;10.50;1.45;;;8.00;79.40;;;;;;5025016;28;20115;-53
2021/03/22 11:12:44;;;;;;;8.37;1.50;;;8.10;78.70;;;;;;5031782;28;20457;-52
2021/03/22 11:15:30;;;;;;;7.03;1.80;;;8.20;78.40;;;;;;5032398;28;20768;-52
2021/03/22 11:17:56;;;;;;;6.93;1.85;;;8.30;77.10;;;;;;5023229;28;20038;-53
2021/03/22 11:20:23;;;;;;;8.57;1.40;;;8.40;77.10;;;;;;5029017;28;20037;-50
2021/03/22 11:22:52;;;;;;;9.88;1.67;;;8.40;77.30;;;;;;5028594;28;20107;-53
2021/03/22 11:25:34;;;;;;;6.78;1.38;;;8.40;75.80;;;;;;5032773;28;20517;-52
2021/03/22 11:28:05;;;;;;;6.78;1.20;;;8.50;74.50;;;;;;5024458;28;20494;-50
2021/03/22 11:30:36;;;;;;;6.10;1.40;;;8.60;74.80;;;;;;5033148;28;20073;-51
2021/03/22 11:33:17;;;;;;;5.47;1.60;;;8.60;75.10;;;;;;5025141;28;20070;-52
2021/03/22 11:35:45;;;;;;;10.88;2.00;;;8.60;73.40;;;;;;5034758;28;20041;-50
2021/03/22 11:38:28;;;;;;;7.72;1.50;;;8.60;73.00;;;;;;5031096;28;20037;-50
2021/03/22 11:40:54;;;;;;;7.93;1.52;;;8.50;73.80;;;;;;5026158;28;20135;-53
2021/03/22 11:43:30;;;;;;;5.35;1.58;;;8.40;73.30;;;;;;5034290;28;20552;-51
2021/03/22 11:46:11;;;;;;;6.43;1.52;;;8.40;73.00;;;;;;5029373;28;20045;-50
2021/03/22 11:48:39;;;;;;;7.30;1.75;;;8.40;74.00;;;;;;5033074;28;20033;-52
2021/03/22 11:51:09;;;;;;;4.75;1.13;;;8.40;74.40;;;;;;5031920;28;20452;-51
2021/03/22 11:54:06;;;;;;;10.82;1.60;;;8.30;74.60;;;;;;5027962;28;20052;-53
2021/03/22 11:56:37;;;;;;;6.65;1.45;;;8.40;75.50;;;;;;5023245;28;20053;-53
2021/03/22 11:59:18;;;;;;;8.40;1.40;;;8.40;74.70;;;;;;5029597;28;20045;-49
2021/03/22 12:02:04;;;;;;;6.78;1.95;;;8.40;74.10;;;;;;5021394;28;20040;-52
2021/03/22 12:04:30;;;;;;;6.60;1.85;;;8.40;74.40;;;;;;5011448;28;20056;-53
2021/03/22 12:07:01;;;;;;;12.13;2.15;;;8.40;74.10;;;;;;5024773;28;20037;-53
2021/03/22 12:09:30;;;;;;;6.65;1.80;;;8.50;74.60;;;;;;5030108;28;20046;-50
2021/03/22 12:11:57;;;;;;;9.65;2.22;;;8.60;74.30;;;;;;5029765;28;20510;-51
2021/03/22 12:14:23;;;;;;;5.93;1.70;;;8.60;74.50;;;;;;5028871;28;20041;-53
2021/03/22 12:16:55;;;;;;;6.93;1.85;;;8.70;73.90;;;;;;5029330;28;20053;-54
2021/03/22 12:19:28;;;;;;;10.75;2.00;;;8.70;73.60;;;;;;5036021;28;20041;-52
2021/03/22 12:21:54;;;;;;;7.20;1.92;;;8.70;74.00;;;;;;5022768;28;20352;-52
2021/03/22 12:24:20;;;;;;;8.48;1.70;;;8.70;73.70;;;;;;5027290;28;20441;-53
2021/03/22 12:26:46;;;;;;;8.27;1.85;;;8.80;73.70;;;;;;5030083;28;20033;-52
2021/03/22 12:29:12;;;;;;;3.20;1.20;;;8.80;73.10;;;;;;5028447;28;20030;-52
2021/03/22 12:31:44;;;;;;;4.72;1.33;;;8.70;72.30;;;;;;5031257;28;20053;-51
2021/03/22 12:34:13;;;;;;;;;;;8.70;70.40;;;;;;5029269;28;20056;-55
2021/03/22 12:36:39;;;;;;;5.20;1.88;;;8.70;70.70;;;;;;5033856;28;19935;-55
2021/03/22 12:39:23;;;;;;;6.63;1.40;;;8.60;71.50;;;;;;5028764;28;20557;-54
2021/03/22 12:41:57;;;;;;;6.10;1.50;;;8.60;70.60;;;;;;5031027;28;20045;-51
2021/03/22 12:44:23;;;;;;;5.90;1.33;;;8.60;71.80;;;;;;5031886;28;20072;-52
2021/03/22 12:46:49;;;;;;;3.70;1.25;;;8.60;71.40;;;;;;5030875;28;20041;-52
2021/03/22 12:49:17;;;;;;;8.18;1.88;;;8.70;72.00;;;;;;5031809;28;20029;-54
2021/03/22 12:51:42;;;;;;;5.82;1.50;;;8.70;70.40;;;;;;5031448;28;20067;-55
2021/03/22 12:54:09;;;;;;;5.82;1.50;;;8.70;69.70;;;;;;5031640;28;20790;-53
2021/03/22 12:56:35;;;;;;;4.68;1.17;;;8.70;69.50;;;;;;5031577;28;20084;-53
2021/03/22 12:59:01;;;;;;;5.13;1.63;;;8.70;69.60;;;;;;5032746;28;20077;-54
2021/03/22 13:01:27;;;;;;;7.72;1.50;;;8.70;69.20;;;;;;5030108;28;20045;-53
2021/03/22 13:03:53;;;;;;;4.88;1.02;;;8.60;69.10;;;;;;5025759;28;20037;-52
2021/03/22 13:06:20;;;;;;;5.53;1.85;;;8.60;69.40;;;;;;5029437;28;20132;-53
2021/03/22 13:08:46;;;;;;;5.15;1.00;;;8.70;69.40;;;;;;5023169;28;20038;-53
2021/03/22 13:11:14;;;;;;;8.07;4.07;;;8.70;68.40;;;;;;5030526;28;20046;-54
2021/03/22 13:13:40;;;;;;;6.10;1.35;;;8.60;69.00;;;;;;5029486;28;20458;-53
2021/03/22 13:16:06;;;;;;;3.40;1.08;;;8.70;69.40;;;;;;5034497;28;20127;-56
2021/03/22 13:18:34;;;;;;;4.13;1.20;;;8.80;68.60;;;;;;5030615;28;20041;-55
2021/03/22 13:21:02;;;;;;;3.58;1.45;;;8.80;68.50;;;;;;5032192;28;20050;-54
2021/03/22 13:23:29;;;;;;;3.22;1.25;;;8.80;69.10;;;;;;5028173;28;20049;-52
2021/03/22 13:25:56;;;;;;;2.63;0.90;;;8.80;69.00;;;;;;5029875;28;20482;-55
2021/03/22 13:28:29;;;;;;;3.67;1.65;;;9.00;69.40;;;;;;5030923;28;20092;-53